Time;durP1;ratioP1;P1;durP2;ratioP2;P2;SDS_P1;SDS_P2;PMS_P1;PMS_P2;Temp;Humidity;BMP_temperature;BMP_pressure;BME280_temperature;BME280_humidity;BME280_pressure;Samples;Min_cycle;Max_cycle;Signal;HPM_P1;HPM_P2
2023/12/05 00:01:29;;;;;;;18.30;10.43;;;2.40;99.90;;;;;;4926238;29;20225;-76
2023/12/05 00:03:55;;;;;;;23.30;12.02;;;2.40;99.90;;;;;;4920140;29;20020;-76
2023/12/05 00:06:20;;;;;;;20.98;11.68;;;2.40;99.90;;;;;;4926612;29;20036;-76
2023/12/05 00:08:46;;;;;;;21.55;11.38;;;2.40;99.90;;;;;;4926558;29;20028;-76
2023/12/05 00:11:12;;;;;;;20.50;10.93;;;2.40;99.90;;;;;;4908718;29;20034;-75
2023/12/05 00:13:38;;;;;;;22.48;11.57;;;2.50;99.90;;;;;;4926284;29;20040;-76
2023/12/05 00:16:04;;;;;;;21.27;10.45;;;2.50;99.90;;;;;;4909135;29;20103;-76
2023/12/05 00:18:29;;;;;;;19.08;10.45;;;2.60;99.90;;;;;;4940844;29;20055;-76
2023/12/05 00:20:55;;;;;;;19.42;10.32;;;2.70;99.90;;;;;;4925558;29;20336;-76
2023/12/05 00:23:21;;;;;;;16.02;8.73;;;2.60;99.90;;;;;;4895785;29;20025;-76
2023/12/05 00:25:47;;;;;;;17.88;9.90;;;2.60;99.90;;;;;;4907281;29;20370;-75
2023/12/05 00:28:12;;;;;;;17.30;9.45;;;2.70;99.90;;;;;;4907028;29;20100;-77
2023/12/05 00:30:38;;;;;;;17.73;9.80;;;2.70;99.90;;;;;;4907160;29;20096;-77
2023/12/05 00:33:03;;;;;;;17.75;10.40;;;2.70;99.90;;;;;;4908162;29;20037;-76
2023/12/05 00:35:29;;;;;;;17.30;9.60;;;2.60;99.90;;;;;;4925887;29;20087;-76
2023/12/05 00:37:55;;;;;;;18.92;10.13;;;2.60;99.90;;;;;;4910318;29;20032;-77
2023/12/05 00:40:20;;;;;;;18.02;10.32;;;2.50;99.90;;;;;;4896185;29;20056;-77
2023/12/05 00:42:46;;;;;;;18.83;9.65;;;2.50;99.90;;;;;;4911439;29;20048;-76
2023/12/05 00:45:13;;;;;;;18.75;10.05;;;2.60;99.90;;;;;;4910332;29;20035;-77
2023/12/05 00:47:39;;;;;;;17.52;10.05;;;2.60;99.90;;;;;;4910676;29;20051;-76
2023/12/05 00:50:05;;;;;;;15.68;9.23;;;2.50;99.90;;;;;;4924698;29;20040;-77
2023/12/05 00:52:31;;;;;;;17.02;9.27;;;2.50;99.90;;;;;;4925259;29;20116;-77
2023/12/05 00:54:57;;;;;;;15.27;8.65;;;2.50;99.90;;;;;;4910469;29;20036;-77
2023/12/05 00:57:23;;;;;;;16.92;8.63;;;2.50;99.90;;;;;;4935789;29;20047;-77
2023/12/05 00:59:49;;;;;;;15.18;8.98;;;2.50;99.90;;;;;;4929451;29;20090;-78
2023/12/05 01:02:15;;;;;;;16.58;8.85;;;2.40;99.90;;;;;;4929080;29;20315;-76
2023/12/05 01:04:40;;;;;;;17.13;8.68;;;2.40;99.90;;;;;;4929006;29;20040;-77
2023/12/05 01:07:07;;;;;;;17.48;8.15;;;2.40;99.90;;;;;;4929088;29;20024;-77
2023/12/05 01:09:32;;;;;;;18.10;8.90;;;2.40;99.90;;;;;;4912519;29;20103;-77
2023/12/05 01:11:58;;;;;;;14.88;8.02;;;2.40;99.90;;;;;;4928731;29;20111;-76
2023/12/05 01:14:24;;;;;;;14.90;8.25;;;2.40;99.90;;;;;;4916444;29;20092;-76
2023/12/05 01:16:49;;;;;;;17.90;8.60;;;2.30;99.90;;;;;;4910405;29;20036;-76
2023/12/05 01:19:15;;;;;;;16.25;8.95;;;2.30;99.90;;;;;;4909800;29;20043;-76
2023/12/05 01:21:41;;;;;;;13.68;8.05;;;2.30;99.90;;;;;;4910543;29;20020;-77
2023/12/05 01:24:07;;;;;;;15.98;8.23;;;2.20;99.90;;;;;;4909591;29;20318;-77
2023/12/05 01:26:33;;;;;;;15.25;7.57;;;2.30;99.90;;;;;;4893942;29;20043;-77
2023/12/05 01:28:58;;;;;;;14.30;7.70;;;2.30;99.90;;;;;;4910691;29;20203;-76
2023/12/05 06:57:46;;;;;;;4.78;1.90;;;4.00;99.90;;;;;;5457445;23;20252;-77
2023/12/05 07:00:13;;;;;;;5.43;1.42;;;4.00;99.90;;;;;;4929122;29;20150;-77
2023/12/05 07:02:39;;;;;;;3.58;1.48;;;3.90;99.90;;;;;;4961642;29;20032;-77
2023/12/05 07:05:05;;;;;;;3.60;1.52;;;3.90;99.90;;;;;;4946503;29;20023;-76
2023/12/05 07:07:31;;;;;;;3.90;1.33;;;3.90;99.90;;;;;;4928826;29;20083;-78
2023/12/05 07:09:56;;;;;;;5.90;1.42;;;3.90;99.90;;;;;;4944385;29;20087;-77
2023/12/05 07:12:22;;;;;;;5.10;1.25;;;3.90;99.90;;;;;;4913048;29;20028;-77
2023/12/05 07:14:48;;;;;;;3.60;1.20;;;4.00;99.90;;;;;;4940516;29;20098;-77
2023/12/05 07:17:13;;;;;;;4.72;1.35;;;4.00;99.90;;;;;;4945431;29;20348;-78
2023/12/05 07:19:39;;;;;;;4.45;1.55;;;4.10;99.90;;;;;;4946460;29;20409;-77
2023/12/05 07:22:05;;;;;;;3.30;1.42;;;4.20;99.90;;;;;;4929570;29;20032;-77
2023/12/05 07:24:34;;;;;;;2.70;1.10;;;4.30;99.90;;;;;;4945858;29;20075;-76
2023/12/05 07:27:00;;;;;;;3.25;1.35;;;4.40;99.90;;;;;;4928460;29;20031;-77
2023/12/05 07:29:26;;;;;;;5.85;1.27;;;4.50;99.90;;;;;;4933760;29;20035;-78
2023/12/05 07:31:53;;;;;;;3.17;1.10;;;4.50;99.90;;;;;;4928624;29;20233;-77
2023/12/05 07:34:19;;;;;;;4.10;0.90;;;4.60;99.90;;;;;;4929470;29;20055;-78
2023/12/05 07:36:44;;;;;;;2.42;0.90;;;4.60;99.90;;;;;;4926683;29;20040;-77
2023/12/05 07:39:16;;;;;;;2.97;0.85;;;4.70;99.90;;;;;;4926826;29;20032;-78
2023/12/05 07:41:54;;;;;;;4.80;1.08;;;4.70;99.90;;;;;;4926147;29;20023;-79
2023/12/05 07:44:19;;;;;;;;;;;4.80;99.90;;;;;;4926714;29;20159;-78
2023/12/05 07:46:46;;;;;;;3.63;0.90;;;4.80;99.90;;;;;;4898664;29;19911;-79
2023/12/05 07:49:12;;;;;;;4.95;1.02;;;4.70;99.90;;;;;;4926619;29;20047;-78
2023/12/05 07:51:38;;;;;;;2.95;0.88;;;4.80;99.90;;;;;;4909355;29;20217;-77
2023/12/05 07:54:05;;;;;;;2.60;0.80;;;4.90;99.90;;;;;;4926553;29;20273;-79
2023/12/05 07:56:31;;;;;;;2.95;0.85;;;4.80;99.90;;;;;;4909267;29;20225;-78
2023/12/05 07:58:56;;;;;;;6.40;2.25;;;4.70;99.90;;;;;;4926358;29;20107;-80
2023/12/05 08:01:23;;;;;;;8.02;3.30;;;4.70;99.90;;;;;;4891765;29;20317;-80
2023/12/05 08:03:48;;;;;;;10.35;4.00;;;4.60;99.90;;;;;;4891293;29;20032;-80
2023/12/05 08:06:14;;;;;;;11.77;4.47;;;4.50;99.90;;;;;;4891379;29;20071;-79
2023/12/05 08:08:40;;;;;;;10.23;4.78;;;4.30;99.90;;;;;;4890841;29;20267;-79
2023/12/05 08:11:11;;;;;;;8.52;4.13;;;4.20;99.90;;;;;;4891065;29;20334;-80
2023/12/05 08:13:37;;;;;;;10.10;4.40;;;4.10;99.90;;;;;;4890398;29;20036;-80
2023/12/05 08:16:07;;;;;;;10.50;4.65;;;4.10;99.90;;;;;;4907600;29;20035;-80
2023/12/05 08:18:46;;;;;;;11.55;4.97;;;4.00;99.90;;;;;;4908629;29;20028;-79
2023/12/05 08:21:23;;;;;;;12.18;5.00;;;4.10;99.90;;;;;;4904425;29;20024;-78
2023/12/05 08:23:49;;;;;;;12.07;4.85;;;4.00;99.90;;;;;;4907328;29;20085;-77
2023/12/05 08:26:24;;;;;;;9.52;3.92;;;4.20;99.90;;;;;;4875438;29;20044;-80
2023/12/05 08:28:56;;;;;;;8.77;4.15;;;4.30;99.90;;;;;;4897023;29;20313;-81
2023/12/05 08:31:21;;;;;;;6.72;2.63;;;4.50;99.90;;;;;;4924544;29;20036;-79
2023/12/05 08:33:47;;;;;;;6.43;1.98;;;4.70;99.90;;;;;;4914135;29;20167;-80
2023/12/05 08:36:13;;;;;;;4.10;1.13;;;4.90;99.90;;;;;;4921796;29;20059;-74
2023/12/05 08:38:39;;;;;;;2.08;0.60;;;5.20;99.90;;;;;;4922951;29;20032;-78
2023/12/05 08:41:05;;;;;;;3.33;0.90;;;5.60;99.90;;;;;;4926199;29;20024;-77
2023/12/05 08:43:30;;;;;;;4.53;0.90;;;5.80;99.90;;;;;;4908431;29;20031;-78
2023/12/05 08:45:56;;;;;;;6.53;1.00;;;5.90;99.90;;;;;;4918719;29;20064;-78
2023/12/05 08:48:22;;;;;;;2.35;0.75;;;5.90;99.90;;;;;;4906747;29;20028;-77
2023/12/05 08:50:47;;;;;;;3.53;0.90;;;6.00;99.90;;;;;;4907155;29;20080;-76
2023/12/05 08:53:13;;;;;;;3.65;1.00;;;6.10;99.90;;;;;;4890631;29;20076;-78
2023/12/05 08:55:41;;;;;;;3.08;1.10;;;6.10;99.90;;;;;;4897180;29;20032;-77
2023/12/05 08:58:07;;;;;;;3.70;0.70;;;6.20;99.90;;;;;;4925102;29;20052;-77
2023/12/05 09:00:32;;;;;;;3.72;0.98;;;6.20;99.90;;;;;;4910067;29;20028;-76
2023/12/05 09:02:59;;;;;;;3.55;0.80;;;6.30;99.90;;;;;;4900598;29;20032;-78
2023/12/05 09:05:25;;;;;;;4.38;0.75;;;6.30;99.90;;;;;;4934578;29;20033;-77
2023/12/05 09:07:50;;;;;;;5.65;1.45;;;6.30;99.90;;;;;;4913570;29;20205;-79
2023/12/05 09:10:16;;;;;;;4.40;1.20;;;6.40;99.90;;;;;;4904756;29;20044;-78
2023/12/05 09:12:42;;;;;;;1.55;0.65;;;6.40;99.90;;;;;;4912109;29;20028;-77
2023/12/05 09:15:08;;;;;;;2.42;0.70;;;6.50;99.90;;;;;;4926495;29;20044;-78
2023/12/05 09:17:34;;;;;;;2.78;0.65;;;6.50;99.90;;;;;;4893617;29;20045;-78
2023/12/05 09:20:00;;;;;;;2.42;0.80;;;6.50;99.90;;;;;;4910531;29;20023;-78
2023/12/05 09:22:26;;;;;;;1.42;0.50;;;6.60;99.90;;;;;;4905809;29;20028;-79
2023/12/05 09:25:01;;;;;;;2.80;0.60;;;6.60;99.90;;;;;;4929254;29;20051;-79
2023/12/05 09:27:35;;;;;;;2.38;0.75;;;6.70;99.90;;;;;;4878350;29;20330;-79
2023/12/05 09:30:05;;;;;;;3.72;0.65;;;6.70;99.90;;;;;;4878247;29;20024;-80
2023/12/05 09:32:31;;;;;;;2.28;0.70;;;6.80;99.90;;;;;;4924426;29;20398;-77
2023/12/05 09:34:56;;;;;;;1.95;0.80;;;6.90;99.90;;;;;;4910194;29;20041;-78
2023/12/05 09:37:22;;;;;;;1.88;0.70;;;6.90;99.90;;;;;;4918320;29;20020;-77
2023/12/05 09:39:48;;;;;;;2.63;0.77;;;6.90;99.90;;;;;;4911885;29;20032;-75
2023/12/05 09:42:24;;;;;;;1.90;0.82;;;6.90;99.90;;;;;;4929200;29;20056;-75
2023/12/05 09:44:50;;;;;;;2.30;0.65;;;7.00;99.90;;;;;;4929909;29;20040;-78
2023/12/05 09:47:20;;;;;;;1.48;0.52;;;7.00;99.90;;;;;;4893800;29;20036;-78
2023/12/05 09:49:46;;;;;;;2.80;0.70;;;7.10;99.90;;;;;;4923267;29;20030;-77
2023/12/05 09:52:12;;;;;;;2.88;0.73;;;7.10;99.90;;;;;;4927292;29;20036;-76
2023/12/05 09:54:38;;;;;;;4.00;0.77;;;7.10;99.90;;;;;;4909341;29;20100;-76
2023/12/05 09:57:05;;;;;;;3.47;0.65;;;7.10;99.90;;;;;;4909863;29;20041;-76
2023/12/05 09:59:30;;;;;;;3.35;0.82;;;7.20;99.90;;;;;;4909630;29;20040;-76
2023/12/05 10:02:02;;;;;;;3.70;0.60;;;7.20;99.90;;;;;;4909894;29;20042;-74
2023/12/05 10:04:29;;;;;;;3.13;0.70;;;7.20;99.90;;;;;;4910308;29;20028;-76
2023/12/05 10:06:58;;;;;;;2.33;0.70;;;7.30;99.90;;;;;;4928354;29;20028;-77
2023/12/05 10:09:27;;;;;;;2.67;0.70;;;7.30;99.90;;;;;;4928212;29;20036;-76
2023/12/05 10:11:53;;;;;;;2.45;0.50;;;7.40;99.90;;;;;;4928586;29;20321;-77
2023/12/05 10:14:19;;;;;;;2.25;0.80;;;7.60;99.90;;;;;;4910801;29;20298;-78
2023/12/05 10:16:48;;;;;;;2.10;0.55;;;7.60;99.90;;;;;;4927909;29;20091;-75
2023/12/05 10:19:14;;;;;;;3.38;0.70;;;7.70;99.90;;;;;;4928521;29;20020;-76
2023/12/05 10:21:40;;;;;;;2.47;0.70;;;7.80;99.90;;;;;;4925948;29;20328;-77
2023/12/05 10:24:06;;;;;;;2.58;0.80;;;7.80;99.90;;;;;;4917423;29;20058;-76
2023/12/05 10:26:32;;;;;;;1.65;0.60;;;7.90;99.90;;;;;;4911065;29;20027;-74
2023/12/05 10:28:58;;;;;;;2.75;0.75;;;8.00;99.90;;;;;;4931421;29;20040;-75
2023/12/05 10:31:27;;;;;;;3.40;0.70;;;8.20;99.40;;;;;;4908622;29;20148;-76
2023/12/05 10:34:05;;;;;;;4.43;0.52;;;8.40;99.00;;;;;;4909311;29;20091;-77
2023/12/05 10:37:04;;;;;;;;;;;8.60;98.10;;;;;;4911757;29;20039;-76
2023/12/05 10:39:50;;;;;;;1.50;0.43;;;8.80;97.90;;;;;;4907856;29;19942;-78
2023/12/05 10:42:18;;;;;;;4.03;0.77;;;8.80;97.40;;;;;;4892373;29;20080;-76
2023/12/05 10:44:49;;;;;;;1.88;0.50;;;9.00;97.10;;;;;;4911654;29;20040;-77
2023/12/05 10:47:16;;;;;;;2.65;0.57;;;9.40;96.50;;;;;;4921598;29;20020;-78
2023/12/05 10:49:43;;;;;;;2.78;0.52;;;9.40;96.10;;;;;;4893983;29;20031;-78
2023/12/05 10:52:13;;;;;;;1.70;0.50;;;9.50;95.80;;;;;;4907941;29;20029;-77
2023/12/05 10:54:46;;;;;;;2.50;0.47;;;9.60;95.50;;;;;;4891754;29;20021;-79
2023/12/05 10:57:30;;;;;;;3.22;0.60;;;9.90;95.10;;;;;;4907743;29;20328;-79
2023/12/05 10:59:56;;;;;;;1.55;0.43;;;10.20;94.40;;;;;;4908716;29;20067;-76
2023/12/05 11:02:21;;;;;;;2.13;0.60;;;10.30;94.00;;;;;;4881123;29;20027;-76
2023/12/05 11:04:51;;;;;;;1.50;0.40;;;10.60;93.80;;;;;;4926736;29;20046;-79
2023/12/05 11:07:28;;;;;;;2.17;0.50;;;10.80;93.20;;;;;;4927806;29;20031;-80
2023/12/05 11:09:54;;;;;;;1.88;0.70;;;11.60;92.60;;;;;;4895407;29;20027;-77
2023/12/05 11:12:26;;;;;;;3.25;0.60;;;12.10;90.70;;;;;;4927425;29;20075;-81
2023/12/05 11:14:55;;;;;;;1.13;0.38;;;11.70;91.50;;;;;;4910681;29;20020;-77
2023/12/05 11:17:27;;;;;;;1.67;0.40;;;11.90;90.60;;;;;;4910035;29;20028;-76
2023/12/05 11:23:28;;;;;;;2.20;0.60;;;12.30;90.30;;;;;;4906878;29;20107;-81
2023/12/05 11:26:51;;;;;;;2.40;0.50;;;12.90;89.20;;;;;;4891707;29;20028;-77
2023/12/05 11:29:42;;;;;;;1.77;0.70;;;12.40;87.20;;;;;;4850995;29;20105;-81
2023/12/05 11:32:21;;;;;;;1.77;0.40;;;12.70;87.60;;;;;;4850397;29;20078;-78
2023/12/05 11:35:08;;;;;;;;;;;12.80;86.60;;;;;;4850909;29;20057;-78
2023/12/05 11:37:59;;;;;;;2.65;0.50;;;12.90;86.30;;;;;;4855312;29;19915;-82
2023/12/05 11:40:40;;;;;;;1.55;0.50;;;12.90;85.90;;;;;;4881018;29;20032;-82
2023/12/05 11:43:11;;;;;;;1.30;0.50;;;13.30;85.70;;;;;;4891611;29;20038;-80
2023/12/05 11:45:46;;;;;;;2.83;0.47;;;13.30;84.90;;;;;;4915152;29;20317;-78
2023/12/05 11:48:33;;;;;;;1.58;0.60;;;13.00;84.50;;;;;;4927011;29;20138;-78
2023/12/05 11:51:14;;;;;;;1.83;0.43;;;13.10;84.00;;;;;;4894507;29;20083;-78
2023/12/05 11:53:41;;;;;;;1.15;0.30;;;13.40;84.20;;;;;;4910081;29;20036;-79
2023/12/05 11:56:19;;;;;;;2.05;0.50;;;14.00;82.10;;;;;;4894680;29;20043;-76
2023/12/05 11:58:44;;;;;;;1.15;0.40;;;13.60;81.70;;;;;;4926113;29;20249;-74
2023/12/05 12:01:17;;;;;;;2.45;0.40;;;13.60;82.50;;;;;;4926538;29;20032;-75
2023/12/05 12:03:48;;;;;;;0.85;0.30;;;13.50;83.30;;;;;;4925952;29;20039;-75
2023/12/05 12:06:16;;;;;;;2.08;0.50;;;13.50;83.00;;;;;;4921507;29;20047;-78
2023/12/05 12:08:44;;;;;;;2.58;0.50;;;13.90;81.50;;;;;;4891137;29;20314;-76
2023/12/05 12:11:10;;;;;;;2.95;0.68;;;13.80;81.90;;;;;;4908126;29;20135;-80
2023/12/05 12:13:37;;;;;;;2.50;0.35;;;14.40;80.90;;;;;;4907755;29;20037;-77
2023/12/05 12:16:03;;;;;;;2.72;0.73;;;14.40;80.20;;;;;;4891037;29;20052;-80
2023/12/05 12:18:29;;;;;;;1.48;0.60;;;14.30;80.00;;;;;;4907735;29;20043;-77
2023/12/05 12:20:54;;;;;;;1.50;0.43;;;13.80;81.10;;;;;;4907032;29;20033;-77
2023/12/05 12:23:20;;;;;;;2.53;0.57;;;14.10;81.00;;;;;;4895177;29;20103;-77
2023/12/05 12:25:55;;;;;;;2.95;1.17;;;13.90;80.10;;;;;;4925825;29;20063;-77
2023/12/05 12:28:28;;;;;;;2.65;0.52;;;13.30;81.50;;;;;;4912740;29;20055;-76
2023/12/05 12:30:56;;;;;;;1.30;0.40;;;12.80;82.90;;;;;;4932525;29;20039;-77
2023/12/05 12:33:22;;;;;;;1.90;0.40;;;12.10;85.90;;;;;;4933898;29;20039;-77
2023/12/05 12:35:52;;;;;;;1.70;0.60;;;11.90;86.20;;;;;;4916440;29;20068;-77
2023/12/05 12:38:18;;;;;;;4.13;0.52;;;11.90;87.10;;;;;;4900921;29;20032;-76
2023/12/05 12:40:44;;;;;;;2.15;0.50;;;12.10;86.00;;;;;;4922820;29;20024;-77
2023/12/05 12:43:12;;;;;;;1.60;0.45;;;12.10;86.40;;;;;;4916874;29;20033;-75
2023/12/05 12:45:38;;;;;;;1.67;0.50;;;12.10;87.10;;;;;;4913464;29;20029;-76
2023/12/05 12:48:04;;;;;;;2.05;0.40;;;12.20;86.50;;;;;;4913740;29;20041;-78
2023/12/05 12:50:30;;;;;;;1.98;0.70;;;12.60;84.90;;;;;;4897285;29;20048;-76
2023/12/05 12:52:59;;;;;;;1.85;0.60;;;12.70;84.10;;;;;;4896195;29;20025;-77
2023/12/05 12:55:25;;;;;;;1.90;0.47;;;12.80;83.90;;;;;;4913613;29;20036;-75
2023/12/05 12:57:53;;;;;;;2.42;0.82;;;12.40;84.20;;;;;;4905733;29;20062;-76
2023/12/05 13:00:20;;;;;;;1.57;0.50;;;12.30;85.00;;;;;;4922202;29;20032;-76
2023/12/05 13:02:52;;;;;;;3.15;0.50;;;12.40;85.40;;;;;;4912872;29;20044;-77
2023/12/05 13:05:18;;;;;;;1.30;0.40;;;12.80;83.20;;;;;;4921722;29;20032;-77
2023/12/05 13:07:43;;;;;;;2.67;0.50;;;12.60;83.50;;;;;;4933344;29;20302;-76
2023/12/05 13:10:12;;;;;;;2.60;0.60;;;12.80;83.20;;;;;;4933296;29;20035;-77
2023/12/05 13:12:38;;;;;;;2.78;1.00;;;13.00;82.30;;;;;;4915498;29;20036;-77
2023/12/05 13:15:05;;;;;;;1.77;0.60;;;12.30;83.30;;;;;;4914198;29;20062;-78
2023/12/05 13:17:32;;;;;;;2.63;0.73;;;11.80;84.40;;;;;;4916058;29;20086;-75
2023/12/05 13:20:05;;;;;;;2.92;0.57;;;11.50;86.50;;;;;;4896540;29;20080;-77
2023/12/05 13:22:31;;;;;;;2.78;0.60;;;11.50;87.10;;;;;;4914157;29;20023;-75
2023/12/05 13:24:56;;;;;;;1.77;0.40;;;11.50;86.80;;;;;;4906718;29;20226;-77
2023/12/05 13:27:25;;;;;;;2.67;0.57;;;11.00;87.60;;;;;;4932824;29;20040;-76
2023/12/05 13:29:51;;;;;;;2.17;0.60;;;10.50;89.70;;;;;;4915506;29;20031;-76
2023/12/05 13:32:17;;;;;;;1.60;0.55;;;10.30;90.40;;;;;;4914311;29;20036;-76
2023/12/05 13:34:43;;;;;;;2.15;0.60;;;10.30;90.70;;;;;;4930673;29;20048;-76
2023/12/05 13:37:09;;;;;;;2.45;0.40;;;10.10;91.00;;;;;;4919170;29;20370;-76
2023/12/05 13:39:35;;;;;;;1.73;0.43;;;10.00;91.00;;;;;;4931005;29;20032;-76
2023/12/05 13:42:01;;;;;;;2.53;0.60;;;9.90;91.40;;;;;;4912408;29;20035;-77
2023/12/05 13:44:27;;;;;;;1.83;0.50;;;9.80;91.70;;;;;;4912717;29;20056;-78
2023/12/05 13:46:53;;;;;;;0.93;0.30;;;9.80;91.90;;;;;;4912052;29;20032;-77
2023/12/05 13:49:18;;;;;;;2.70;0.50;;;9.80;91.40;;;;;;4893506;29;20075;-77
2023/12/05 13:51:45;;;;;;;3.35;0.70;;;9.70;91.40;;;;;;4928327;29;20028;-75
2023/12/05 13:54:11;;;;;;;3.95;0.57;;;9.50;91.80;;;;;;4933340;28;20051;-77
2023/12/05 13:56:46;;;;;;;3.00;0.57;;;9.40;92.10;;;;;;4947873;29;20194;-77
2023/12/05 13:59:13;;;;;;;4.55;0.68;;;9.30;92.20;;;;;;4947882;29;20036;-75
2023/12/05 14:01:39;;;;;;;3.37;0.67;;;9.30;92.80;;;;;;4931379;29;20095;-77
2023/12/05 14:04:05;;;;;;;2.60;0.40;;;9.20;92.50;;;;;;4943428;29;20439;-77
2023/12/05 14:06:31;;;;;;;2.20;0.63;;;9.10;92.90;;;;;;4942875;29;20059;-75
2023/12/05 14:08:56;;;;;;;1.90;0.70;;;9.00;93.00;;;;;;4931056;29;20040;-78
2023/12/05 14:11:22;;;;;;;2.72;0.45;;;9.00;93.20;;;;;;4911663;29;20072;-77
2023/12/05 14:13:47;;;;;;;2.85;0.98;;;9.00;93.30;;;;;;4928347;29;20099;-76
2023/12/05 14:16:14;;;;;;;2.72;0.52;;;9.00;93.10;;;;;;4928880;29;20060;-76
2023/12/05 14:18:40;;;;;;;2.45;0.50;;;9.20;92.80;;;;;;4928431;29;20024;-78
2023/12/05 14:21:06;;;;;;;2.22;0.68;;;9.60;92.40;;;;;;4928534;29;20032;-76
2023/12/05 14:23:31;;;;;;;1.67;0.50;;;10.00;91.60;;;;;;4928668;29;20310;-75
2023/12/05 14:25:58;;;;;;;1.80;0.60;;;10.10;90.90;;;;;;4914238;29;20406;-77
2023/12/05 14:28:24;;;;;;;3.83;0.98;;;10.40;90.70;;;;;;4911121;29;20032;-76
2023/12/05 14:30:49;;;;;;;3.00;1.15;;;10.20;90.50;;;;;;4911144;29;20074;-76
2023/12/05 14:33:15;;;;;;;1.92;0.57;;;9.90;90.90;;;;;;4911481;29;20034;-76
2023/12/05 14:35:41;;;;;;;4.88;1.60;;;9.80;91.10;;;;;;4943079;29;20329;-77
2023/12/05 14:38:09;;;;;;;3.20;0.80;;;9.40;91.30;;;;;;4911148;29;20028;-76
2023/12/05 14:41:02;;;;;;;4.43;0.60;;;9.00;91.70;;;;;;4911012;29;20024;-76
2023/12/05 14:43:28;;;;;;;2.97;0.70;;;8.70;91.90;;;;;;4924141;29;20375;-79
2023/12/05 14:45:55;;;;;;;4.88;0.70;;;8.60;92.10;;;;;;4926300;29;20036;-76
2023/12/05 14:48:27;;;;;;;2.28;0.60;;;8.30;92.00;;;;;;4911051;29;20027;-77
2023/12/05 14:51:15;;;;;;;1.83;0.60;;;8.20;92.50;;;;;;4922887;29;20123;-77
2023/12/05 14:53:45;;;;;;;2.83;0.70;;;8.10;92.50;;;;;;4910745;29;20313;-76
2023/12/05 14:56:11;;;;;;;1.73;0.50;;;8.00;92.50;;;;;;4926552;29;20047;-79
2023/12/05 14:58:46;;;;;;;4.25;0.60;;;8.00;92.50;;;;;;4930298;29;20056;-77
2023/12/05 15:01:27;;;;;;;2.53;0.50;;;7.90;92.60;;;;;;4911014;29;20080;-76
2023/12/05 15:03:56;;;;;;;4.25;0.80;;;7.90;92.70;;;;;;4910260;29;20036;-77
2023/12/05 15:06:25;;;;;;;2.25;0.40;;;7.80;92.60;;;;;;4910919;29;20059;-77
2023/12/05 15:09:12;;;;;;;3.40;0.68;;;7.80;92.80;;;;;;4910281;29;20064;-77
2023/12/05 15:12:04;;;;;;;2.33;0.50;;;7.70;92.40;;;;;;4910481;29;20027;-77
2023/12/05 15:14:51;;;;;;;4.03;0.55;;;7.60;92.60;;;;;;4912943;29;20110;-77
2023/12/05 15:17:40;;;;;;;2.95;0.90;;;7.60;92.60;;;;;;4910701;29;20028;-78
2023/12/05 15:20:25;;;;;;;4.88;0.65;;;7.50;92.60;;;;;;4927121;29;20048;-79
2023/12/05 15:23:06;;;;;;;5.15;0.90;;;7.50;92.70;;;;;;4926861;29;20416;-79
2023/12/05 15:25:47;;;;;;;1.92;0.52;;;7.40;92.60;;;;;;4927100;29;20302;-77
2023/12/05 15:28:50;;;;;;;2.70;0.60;;;7.40;92.80;;;;;;4927203;29;20111;-79
2023/12/05 15:31:16;;;;;;;3.65;0.70;;;7.30;92.80;;;;;;4895039;29;20043;-77
2023/12/05 15:33:42;;;;;;;2.65;0.52;;;7.30;92.90;;;;;;4912766;29;20044;-75
2023/12/05 15:36:14;;;;;;;4.28;1.00;;;7.30;92.90;;;;;;4926971;29;20059;-77
2023/12/05 15:38:52;;;;;;;4.25;0.88;;;7.30;93.00;;;;;;4910746;29;20067;-78
2023/12/05 15:41:21;;;;;;;;;;;7.30;93.10;;;;;;4942458;29;20024;-78
2023/12/05 15:43:51;;;;;;;3.45;0.77;;;7.20;93.20;;;;;;4894281;29;19907;-78
2023/12/05 15:46:24;;;;;;;2.65;0.80;;;7.20;93.40;;;;;;4910225;29;20024;-80
2023/12/05 15:48:50;;;;;;;3.88;0.73;;;7.20;93.50;;;;;;4923876;29;20028;-80
2023/12/05 15:51:39;;;;;;;2.53;0.52;;;7.20;93.70;;;;;;4944903;29;20428;-78
2023/12/05 15:54:05;;;;;;;4.53;0.70;;;7.10;93.80;;;;;;4912335;29;20056;-79
2023/12/05 15:56:36;;;;;;;2.15;0.68;;;7.20;93.70;;;;;;4944481;29;20313;-79
2023/12/05 15:59:09;;;;;;;2.90;0.57;;;7.10;93.90;;;;;;4928624;29;20042;-78
2023/12/05 16:01:47;;;;;;;3.92;0.50;;;7.10;94.10;;;;;;4932526;29;20019;-77
2023/12/05 16:04:12;;;;;;;3.67;0.87;;;7.00;94.30;;;;;;4930467;29;20047;-77
2023/12/05 16:06:56;;;;;;;4.93;1.20;;;7.00;94.40;;;;;;4908668;29;20467;-78
2023/12/05 16:09:23;;;;;;;5.10;0.73;;;6.90;94.60;;;;;;4925193;29;20028;-77
2023/12/05 16:11:58;;;;;;;4.00;0.90;;;6.90;94.60;;;;;;4893879;29;20028;-78
2023/12/05 16:14:24;;;;;;;3.50;0.70;;;6.90;94.70;;;;;;4926594;29;20330;-77
2023/12/05 16:16:49;;;;;;;3.05;0.80;;;6.90;94.50;;;;;;4934125;29;20110;-79
2023/12/05 16:19:18;;;;;;;3.58;0.68;;;6.90;94.70;;;;;;4928605;29;20031;-77
2023/12/05 16:21:44;;;;;;;7.03;0.82;;;6.80;95.00;;;;;;4926180;29;20087;-77
2023/12/05 16:24:31;;;;;;;3.45;0.57;;;6.80;94.90;;;;;;4894153;29;20024;-77
2023/12/05 16:26:57;;;;;;;3.70;0.70;;;6.80;95.10;;;;;;4925983;29;20095;-77
2023/12/05 16:29:43;;;;;;;4.55;0.70;;;6.80;95.20;;;;;;4909571;29;20028;-77
2023/12/05 16:32:47;;;;;;;;;;;;;;;;;;;;;
2023/12/05 16:35:14;;;;;;;3.30;0.77;;;6.80;95.40;;;;;;4927727;29;20039;-78
2023/12/05 16:37:52;;;;;;;1.80;0.63;;;6.70;95.40;;;;;;4928419;29;20032;-77
2023/12/05 16:40:21;;;;;;;3.33;1.00;;;6.70;95.70;;;;;;4911387;29;20047;-77
2023/12/05 16:42:49;;;;;;;1.52;0.60;;;6.70;95.70;;;;;;4926619;29;20042;-77
2023/12/05 16:45:19;;;;;;;3.97;0.88;;;6.60;95.90;;;;;;4909104;29;20020;-78
2023/12/05 16:51:59;;;;;;;5.72;0.90;;;6.60;95.90;;;;;;4778771;30;20044;-80
2023/12/05 16:54:31;;;;;;;2.67;0.60;;;6.60;95.90;;;;;;4762510;30;20234;-78
2023/12/05 16:57:22;;;;;;;2.72;0.90;;;6.60;96.00;;;;;;4747004;30;20119;-78
2023/12/05 17:07:32;;;;;;;3.80;0.70;;;6.50;96.10;;;;;;4716805;30;20138;-78
2023/12/05 17:14:18;;;;;;;4.40;1.17;;;6.40;96.20;;;;;;4706943;30;20036;-79
2023/12/05 17:17:07;;;;;;;3.08;1.05;;;6.40;96.40;;;;;;4710020;30;20049;-78
2023/12/05 17:19:47;;;;;;;4.47;1.15;;;6.40;96.60;;;;;;4710114;30;20037;-79
2023/12/05 17:26:40;;;;;;;3.25;0.90;;;6.40;96.30;;;;;;4705546;30;20051;-79
2023/12/05 17:29:52;;;;;;;4.32;1.00;;;6.30;96.60;;;;;;4797011;29;20065;-79
2023/12/05 17:35:36;;;;;;;3.83;1.20;;;6.30;96.60;;;;;;4836285;29;20339;-78
2023/12/05 17:38:05;;;;;;;3.65;0.88;;;6.30;96.80;;;;;;4836403;29;20029;-79
2023/12/05 17:40:35;;;;;;;2.47;0.75;;;6.30;96.80;;;;;;4887188;29;20063;-78
2023/12/05 17:43:26;;;;;;;4.85;1.25;;;6.30;97.00;;;;;;4897607;29;20048;-78
2023/12/05 17:45:54;;;;;;;2.70;0.65;;;6.30;97.30;;;;;;4896724;29;20032;-77
2023/12/05 17:48:32;;;;;;;2.53;1.10;;;6.20;97.60;;;;;;4911922;29;20092;-78
2023/12/05 17:51:09;;;;;;;4.55;0.98;;;6.20;98.20;;;;;;4926545;29;20025;-77
2023/12/05 17:54:16;;;;;;;4.13;1.00;;;6.20;98.30;;;;;;4918179;29;20219;-76
2023/12/05 17:57:21;;;;;;;3.63;0.90;;;6.00;98.90;;;;;;4894375;29;20108;-77
2023/12/05 18:00:20;;;;;;;2.60;0.80;;;6.10;99.30;;;;;;4912232;29;20032;-76
2023/12/05 18:02:49;;;;;;;2.75;0.82;;;5.90;99.30;;;;;;4896870;29;20322;-78
2023/12/05 18:05:15;;;;;;;2.00;0.70;;;5.90;99.50;;;;;;4933693;29;20063;-78
2023/12/05 18:07:44;;;;;;;2.70;0.80;;;5.90;99.70;;;;;;4932333;29;20027;-78
2023/12/05 18:10:15;;;;;;;3.88;0.90;;;5.80;99.70;;;;;;4946168;29;20103;-77
2023/12/05 18:13:06;;;;;;;2.70;0.90;;;5.80;99.90;;;;;;4946794;29;20162;-79
2023/12/05 18:16:08;;;;;;;1.95;0.90;;;5.80;99.90;;;;;;4946624;29;20392;-78
2023/12/05 18:19:26;;;;;;;4.20;0.70;;;5.80;99.90;;;;;;4907410;29;20098;-80
2023/12/05 18:21:57;;;;;;;3.20;0.70;;;5.80;99.90;;;;;;4892039;29;20115;-79
2023/12/05 18:24:23;;;;;;;2.03;0.80;;;5.70;99.90;;;;;;4895318;29;20040;-79
2023/12/05 18:26:52;;;;;;;3.40;0.90;;;5.70;99.90;;;;;;4941585;29;20094;-79
2023/12/05 18:29:26;;;;;;;3.13;1.00;;;5.70;99.90;;;;;;4946685;29;20238;-82
2023/12/05 18:31:55;;;;;;;2.05;0.82;;;5.60;99.90;;;;;;4946872;29;20031;-80
2023/12/05 18:35:15;;;;;;;1.85;0.50;;;5.60;99.90;;;;;;4962828;28;20305;-81
2023/12/05 18:37:41;;;;;;;2.97;0.98;;;5.60;99.90;;;;;;4892766;29;20044;-79
2023/12/05 18:40:07;;;;;;;3.15;0.70;;;5.60;99.90;;;;;;4875972;29;20021;-79
2023/12/05 18:43:04;;;;;;;3.78;0.88;;;5.50;99.90;;;;;;4928115;29;20028;-81
2023/12/05 18:45:30;;;;;;;2.72;0.82;;;5.50;99.90;;;;;;4917215;29;20040;-81
2023/12/05 18:48:04;;;;;;;2.30;0.90;;;5.50;99.90;;;;;;4927237;29;20039;-81
2023/12/05 18:50:32;;;;;;;3.05;0.60;;;5.50;99.90;;;;;;4929105;29;20083;-79
2023/12/05 18:53:04;;;;;;;3.15;0.70;;;5.40;99.90;;;;;;4928395;29;20095;-81
2023/12/05 18:55:41;;;;;;;2.08;0.70;;;5.50;99.90;;;;;;4912331;29;20218;-80
2023/12/05 18:58:07;;;;;;;2.63;1.20;;;5.40;99.90;;;;;;4931540;29;20044;-79
2023/12/05 19:00:38;;;;;;;2.72;0.80;;;5.40;99.90;;;;;;4943869;29;20440;-81
2023/12/05 19:03:17;;;;;;;2.50;1.02;;;5.30;99.90;;;;;;4928797;29;20154;-82
2023/12/05 19:09:31;;;;;;;2.20;0.68;;;5.40;99.90;;;;;;4852706;29;20114;-82
2023/12/05 19:12:21;;;;;;;2.15;0.70;;;5.40;99.90;;;;;;4847161;29;20069;-80